sensor_id;sensor_type;location;lat;lon;timestamp;pressure;altitude;pressure_sealevel;temperature;humidity
36598;BME280;22607;49.550;11.940;2023-04-02T00:07:47;95910.97;;;8.41;100.00
36598;BME280;22607;49.550;11.940;2023-04-02T00:10:57;95930.97;;;8.19;100.00
36598;BME280;22607;49.550;11.940;2023-04-02T00:13:30;95917.00;;;8.26;100.00
36598;BME280;22607;49.550;11.940;2023-04-02T00:15:59;95925.38;;;8.22;100.00
36598;BME280;22607;49.550;11.940;2023-04-02T00:18:26;95927.19;;;8.36;100.00
36598;BME280;22607;49.550;11.940;2023-04-02T00:21:19;95938.19;;;8.47;100.00
36598;BME280;22607;49.550;11.940;2023-04-02T00:23:46;95942.88;;;8.36;100.00
36598;BME280;22607;49.550;11.940;2023-04-02T00:28:49;95941.78;;;8.46;100.00
36598;BME280;22607;49.550;11.940;2023-04-02T00:31:18;95936.28;;;8.25;100.00
36598;BME280;22607;49.550;11.940;2023-04-02T00:33:45;95949.47;;;8.47;100.00
36598;BME280;22607;49.550;11.940;2023-04-02T00:36:14;95955.59;;;8.24;100.00
36598;BME280;22607;49.550;11.940;2023-04-02T00:38:41;95954.88;;;8.31;100.00
36598;BME280;22607;49.550;11.940;2023-04-02T00:41:14;95955.34;;;8.34;100.00
36598;BME280;22607;49.550;11.940;2023-04-02T00:43:43;95954.69;;;8.32;100.00
36598;BME280;22607;49.550;11.940;2023-04-02T00:46:17;95958.66;;;8.43;100.00
36598;BME280;22607;49.550;11.940;2023-04-02T00:48:58;95957.84;;;8.43;100.00
36598;BME280;22607;49.550;11.940;2023-04-02T00:51:31;95955.78;;;8.38;100.00
36598;BME280;22607;49.550;11.940;2023-04-02T00:54:04;95956.16;;;8.50;100.00
36598;BME280;22607;49.550;11.940;2023-04-02T00:56:41;95957.63;;;8.52;100.00
36598;BME280;22607;49.550;11.940;2023-04-02T00:59:33;95957.75;;;8.51;100.00
36598;BME280;22607;49.550;11.940;2023-04-02T01:05:39;95965.81;;;8.34;100.00
36598;BME280;22607;49.550;11.940;2023-04-02T01:07:50;95961.06;;;8.53;100.00
36598;BME280;22607;49.550;11.940;2023-04-02T01:11:00;95963.56;;;8.46;100.00
36598;BME280;22607;49.550;11.940;2023-04-02T01:19:15;95966.69;;;8.41;100.00
36598;BME280;22607;49.550;11.940;2023-04-02T01:22:06;95964.88;;;8.27;100.00
36598;BME280;22607;49.550;11.940;2023-04-02T01:24:35;95961.28;;;8.28;100.00
36598;BME280;22607;49.550;11.940;2023-04-02T01:27:12;95971.97;;;8.03;100.00
36598;BME280;22607;49.550;11.940;2023-04-02T01:29:52;95969.22;;;8.20;100.00
36598;BME280;22607;49.550;11.940;2023-04-02T01:32:25;95971.25;;;7.94;100.00
36598;BME280;22607;49.550;11.940;2023-04-02T01:34:53;95974.34;;;8.28;100.00
36598;BME280;22607;49.550;11.940;2023-04-02T01:43:05;95982.56;;;8.25;100.00
36598;BME280;22607;49.550;11.940;2023-04-02T01:45:36;95982.13;;;8.36;100.00
36598;BME280;22607;49.550;11.940;2023-04-02T01:48:16;95979.59;;;8.43;100.00
36598;BME280;22607;49.550;11.940;2023-04-02T01:50:43;95981.06;;;8.46;100.00
36598;BME280;22607;49.550;11.940;2023-04-02T01:53:12;95989.63;;;8.39;100.00
36598;BME280;22607;49.550;11.940;2023-04-02T01:55:52;95989.78;;;8.23;100.00
36598;BME280;22607;49.550;11.940;2023-04-02T01:58:21;95988.34;;;8.35;100.00
36598;BME280;22607;49.550;11.940;2023-04-02T02:03:29;95993.22;;;8.23;100.00
36598;BME280;22607;49.550;11.940;2023-04-02T02:05:56;95992.75;;;8.35;100.00
36598;BME280;22607;49.550;11.940;2023-04-02T02:11:13;95992.59;;;8.36;100.00
36598;BME280;22607;49.550;11.940;2023-04-02T02:14:14;96002.63;;;8.48;100.00
36598;BME280;22607;49.550;11.940;2023-04-02T02:16:42;96006.19;;;8.55;100.00
36598;BME280;22607;49.550;11.940;2023-04-02T02:19:27;95999.44;;;8.37;100.00
36598;BME280;22607;49.550;11.940;2023-04-02T02:22:08;96001.38;;;8.44;100.00
36598;BME280;22607;49.550;11.940;2023-04-02T02:24:36;96010.94;;;8.51;100.00
36598;BME280;22607;49.550;11.940;2023-04-02T02:30:16;96010.66;;;8.46;100.00
36598;BME280;22607;49.550;11.940;2023-04-02T02:32:50;96011.44;;;8.47;100.00
36598;BME280;22607;49.550;11.940;2023-04-02T02:35:23;96020.75;;;8.49;100.00
36598;BME280;22607;49.550;11.940;2023-04-02T02:38:21;96015.50;;;8.49;100.00
36598;BME280;22607;49.550;11.940;2023-04-02T02:40:53;96020.97;;;8.48;100.00
36598;BME280;22607;49.550;11.940;2023-04-02T02:43:23;96017.41;;;8.40;100.00
36598;BME280;22607;49.550;11.940;2023-04-02T02:45:51;96015.50;;;8.49;100.00
36598;BME280;22607;49.550;11.940;2023-04-02T02:48:22;96027.88;;;8.40;100.00
36598;BME280;22607;49.550;11.940;2023-04-02T02:50:50;96027.59;;;8.35;100.00
36598;BME280;22607;49.550;11.940;2023-04-02T02:53:22;96033.34;;;8.31;100.00
36598;BME280;22607;49.550;11.940;2023-04-02T02:55:54;96025.59;;;8.37;100.00
36598;BME280;22607;49.550;11.940;2023-04-02T02:58:25;96038.78;;;8.44;100.00
36598;BME280;22607;49.550;11.940;2023-04-02T03:00:53;96036.81;;;8.46;100.00
36598;BME280;22607;49.550;11.940;2023-04-02T03:03:23;96038.84;;;8.21;100.00
36598;BME280;22607;49.550;11.940;2023-04-02T03:05:55;96040.13;;;8.40;100.00
36598;BME280;22607;49.550;11.940;2023-04-02T03:08:31;96047.19;;;8.39;100.00
36598;BME280;22607;49.550;11.940;2023-04-02T03:11:00;96038.75;;;8.52;100.00
36598;BME280;22607;49.550;11.940;2023-04-02T03:13:33;96041.03;;;8.56;100.00
36598;BME280;22607;49.550;11.940;2023-04-02T03:16:17;96050.38;;;8.50;100.00
36598;BME280;22607;49.550;11.940;2023-04-02T03:18:51;96055.28;;;8.53;100.00
36598;BME280;22607;49.550;11.940;2023-04-02T03:21:32;96051.13;;;8.59;100.00
36598;BME280;22607;49.550;11.940;2023-04-02T03:24:02;96063.03;;;8.61;100.00
36598;BME280;22607;49.550;11.940;2023-04-02T03:26:38;96055.59;;;8.50;100.00
36598;BME280;22607;49.550;11.940;2023-04-02T03:29:18;96064.06;;;8.37;100.00
36598;BME280;22607;49.550;11.940;2023-04-02T03:31:49;96071.44;;;8.33;100.00
36598;BME280;22607;49.550;11.940;2023-04-02T03:34:55;96067.19;;;8.32;100.00
36598;BME280;22607;49.550;11.940;2023-04-02T03:37:45;96069.81;;;8.32;100.00
36598;BME280;22607;49.550;11.940;2023-04-02T03:40:25;96068.91;;;8.25;100.00
36598;BME280;22607;49.550;11.940;2023-04-02T03:42:59;96082.53;;;8.35;100.00
36598;BME280;22607;49.550;11.940;2023-04-02T03:45:35;96079.94;;;8.35;100.00
36598;BME280;22607;49.550;11.940;2023-04-02T03:48:18;96077.91;;;8.22;100.00
36598;BME280;22607;49.550;11.940;2023-04-02T03:50:59;96076.38;;;8.28;100.00
36598;BME280;22607;49.550;11.940;2023-04-02T03:53:29;96076.03;;;8.31;100.00
36598;BME280;22607;49.550;11.940;2023-04-02T03:55:59;96084.38;;;8.50;100.00
36598;BME280;22607;49.550;11.940;2023-04-02T03:58:37;96090.56;;;8.57;100.00
36598;BME280;22607;49.550;11.940;2023-04-02T04:01:11;96090.56;;;8.57;100.00
36598;BME280;22607;49.550;11.940;2023-04-02T04:03:50;96092.84;;;8.52;100.00
36598;BME280;22607;49.550;11.940;2023-04-02T04:07:04;96096.47;;;8.51;100.00
36598;BME280;22607;49.550;11.940;2023-04-02T04:09:30;96092.53;;;8.55;100.00
36598;BME280;22607;49.550;11.940;2023-04-02T04:12:11;96096.78;;;8.56;100.00
36598;BME280;22607;49.550;11.940;2023-04-02T04:14:43;96089.94;;;8.55;100.00
36598;BME280;22607;49.550;11.940;2023-04-02T04:17:16;96101.50;;;8.61;100.00
36598;BME280;22607;49.550;11.940;2023-04-02T04:19:53;96107.53;;;8.61;100.00
36598;BME280;22607;49.550;11.940;2023-04-02T04:22:25;96108.53;;;8.60;100.00
36598;BME280;22607;49.550;11.940;2023-04-02T04:24:57;96109.81;;;8.64;100.00
36598;BME280;22607;49.550;11.940;2023-04-02T04:27:30;96115.69;;;8.66;100.00
36598;BME280;22607;49.550;11.940;2023-04-02T04:30:32;96117.75;;;8.71;100.00
36598;BME280;22607;49.550;11.940;2023-04-02T04:33:04;96128.78;;;8.66;100.00
36598;BME280;22607;49.550;11.940;2023-04-02T04:35:37;96131.81;;;8.55;100.00
36598;BME280;22607;49.550;11.940;2023-04-02T04:38:24;96125.84;;;8.61;100.00
36598;BME280;22607;49.550;11.940;2023-04-02T04:41:00;96133.19;;;8.66;100.00
36598;BME280;22607;49.550;11.940;2023-04-02T04:46:37;96144.28;;;8.68;100.00
36598;BME280;22607;49.550;11.940;2023-04-02T04:49:25;96142.94;;;8.57;100.00
36598;BME280;22607;49.550;11.940;2023-04-02T04:52:00;96156.19;;;8.56;100.00
36598;BME280;22607;49.550;11.940;2023-04-02T04:54:36;96156.91;;;8.64;100.00
36598;BME280;22607;49.550;11.940;2023-04-02T04:57:04;96159.03;;;8.69;100.00
36598;BME280;22607;49.550;11.940;2023-04-02T04:59:41;96160.25;;;8.58;100.00
36598;BME280;22607;49.550;11.940;2023-04-02T05:02:31;96157.91;;;8.63;100.00
36598;BME280;22607;49.550;11.940;2023-04-02T05:05:01;96161.34;;;8.64;100.00
36598;BME280;22607;49.550;11.940;2023-04-02T05:07:35;96169.28;;;8.71;100.00
36598;BME280;22607;49.550;11.940;2023-04-02T05:10:24;96176.81;;;8.74;100.00
36598;BME280;22607;49.550;11.940;2023-04-02T05:12:58;96179.25;;;8.75;100.00
36598;BME280;22607;49.550;11.940;2023-04-02T05:15:34;96175.00;;;8.74;100.00
36598;BME280;22607;49.550;11.940;2023-04-02T05:23:46;96184.53;;;8.67;100.00
36598;BME280;22607;49.550;11.940;2023-04-02T05:26:24;96186.66;;;8.72;100.00
36598;BME280;22607;49.550;11.940;2023-04-02T05:29:04;96193.50;;;8.73;100.00
36598;BME280;22607;49.550;11.940;2023-04-02T05:31:47;96202.06;;;8.66;100.00
36598;BME280;22607;49.550;11.940;2023-04-02T05:34:28;96204.25;;;8.78;100.00
36598;BME280;22607;49.550;11.940;2023-04-02T05:36:57;96209.09;;;8.66;100.00
36598;BME280;22607;49.550;11.940;2023-04-02T05:39:26;96202.81;;;8.75;100.00
36598;BME280;22607;49.550;11.940;2023-04-02T05:42:02;96207.22;;;8.75;100.00
36598;BME280;22607;49.550;11.940;2023-04-02T05:44:35;96210.16;;;8.57;100.00
36598;BME280;22607;49.550;11.940;2023-04-02T05:47:16;96215.66;;;8.62;100.00
36598;BME280;22607;49.550;11.940;2023-04-02T05:50:00;96214.22;;;8.83;100.00
36598;BME280;22607;49.550;11.940;2023-04-02T05:52:31;96219.09;;;8.86;100.00
36598;BME280;22607;49.550;11.940;2023-04-02T05:55:26;96218.63;;;8.82;100.00
36598;BME280;22607;49.550;11.940;2023-04-02T05:57:59;96230.31;;;8.95;100.00
36598;BME280;22607;49.550;11.940;2023-04-02T06:03:24;96232.56;;;8.98;100.00
36598;BME280;22607;49.550;11.940;2023-04-02T06:05:58;96244.44;;;9.09;100.00
36598;BME280;22607;49.550;11.940;2023-04-02T06:08:35;96235.13;;;9.06;100.00
36598;BME280;22607;49.550;11.940;2023-04-02T06:11:07;96241.81;;;9.09;100.00
36598;BME280;22607;49.550;11.940;2023-04-02T06:13:35;96243.97;;;9.05;100.00
36598;BME280;22607;49.550;11.940;2023-04-02T06:16:02;96251.28;;;9.10;100.00
36598;BME280;22607;49.550;11.940;2023-04-02T06:18:34;96252.22;;;9.17;100.00
36598;BME280;22607;49.550;11.940;2023-04-02T06:21:03;96247.34;;;9.14;100.00
36598;BME280;22607;49.550;11.940;2023-04-02T06:23:55;96252.56;;;9.14;100.00
36598;BME280;22607;49.550;11.940;2023-04-02T06:26:32;96260.53;;;9.21;100.00
36598;BME280;22607;49.550;11.940;2023-04-02T06:31:42;96271.56;;;9.16;100.00
36598;BME280;22607;49.550;11.940;2023-04-02T06:34:16;96268.84;;;9.24;100.00
36598;BME280;22607;49.550;11.940;2023-04-02T06:36:44;96265.16;;;9.18;100.00
36598;BME280;22607;49.550;11.940;2023-04-02T06:39:17;96276.38;;;9.27;100.00
36598;BME280;22607;49.550;11.940;2023-04-02T06:41:45;96269.78;;;9.31;100.00
36598;BME280;22607;49.550;11.940;2023-04-02T06:44:18;96287.56;;;9.21;100.00
36598;BME280;22607;49.550;11.940;2023-04-02T06:46:57;96288.75;;;9.18;100.00
36598;BME280;22607;49.550;11.940;2023-04-02T06:49:31;96294.94;;;9.17;100.00
36598;BME280;22607;49.550;11.940;2023-04-02T06:52:01;96299.50;;;9.00;100.00
36598;BME280;22607;49.550;11.940;2023-04-02T06:54:29;96302.19;;;9.15;100.00
36598;BME280;22607;49.550;11.940;2023-04-02T06:56:55;96298.56;;;9.16;100.00
36598;BME280;22607;49.550;11.940;2023-04-02T06:59:22;96307.06;;;9.18;100.00
36598;BME280;22607;49.550;11.940;2023-04-02T07:01:56;96314.28;;;9.16;100.00
36598;BME280;22607;49.550;11.940;2023-04-02T07:04:24;96320.56;;;9.07;100.00
36598;BME280;22607;49.550;11.940;2023-04-02T07:06:51;96328.09;;;9.10;100.00
36598;BME280;22607;49.550;11.940;2023-04-02T07:09:18;96334.22;;;9.02;100.00
36598;BME280;22607;49.550;11.940;2023-04-02T07:11:45;96331.66;;;8.94;100.00
36598;BME280;22607;49.550;11.940;2023-04-02T07:14:12;96344.84;;;9.01;100.00
36598;BME280;22607;49.550;11.940;2023-04-02T07:16:40;96340.94;;;8.97;100.00
36598;BME280;22607;49.550;11.940;2023-04-02T07:19:15;96346.53;;;8.93;100.00
36598;BME280;22607;49.550;11.940;2023-04-02T07:21:42;96356.22;;;8.93;100.00
36598;BME280;22607;49.550;11.940;2023-04-02T07:24:09;96360.97;;;8.89;100.00
36598;BME280;22607;49.550;11.940;2023-04-02T07:26:35;96359.75;;;8.77;100.00
36598;BME280;22607;49.550;11.940;2023-04-02T07:29:02;96363.78;;;8.88;100.00
36598;BME280;22607;49.550;11.940;2023-04-02T07:31:29;96363.53;;;8.74;100.00
36598;BME280;22607;49.550;11.940;2023-04-02T07:33:57;96374.78;;;8.75;100.00
36598;BME280;22607;49.550;11.940;2023-04-02T07:36:27;96377.03;;;8.86;100.00
36598;BME280;22607;49.550;11.940;2023-04-02T07:38:54;96384.53;;;8.89;100.00
36598;BME280;22607;49.550;11.940;2023-04-02T07:41:21;96388.41;;;9.02;100.00
36598;BME280;22607;49.550;11.940;2023-04-02T07:43:49;96391.34;;;8.99;100.00
36598;BME280;22607;49.550;11.940;2023-04-02T07:46:17;96390.56;;;8.66;100.00
36598;BME280;22607;49.550;11.940;2023-04-02T07:48:45;96410.16;;;8.71;100.00
36598;BME280;22607;49.550;11.940;2023-04-02T07:51:21;96403.25;;;8.78;100.00
36598;BME280;22607;49.550;11.940;2023-04-02T07:53:49;96411.38;;;8.91;100.00
36598;BME280;22607;49.550;11.940;2023-04-02T07:56:19;96424.31;;;8.93;100.00
36598;BME280;22607;49.550;11.940;2023-04-02T07:58:46;96427.81;;;8.77;100.00
36598;BME280;22607;49.550;11.940;2023-04-02T08:01:24;96426.06;;;9.01;100.00
36598;BME280;22607;49.550;11.940;2023-04-02T08:03:52;96428.41;;;9.19;100.00
36598;BME280;22607;49.550;11.940;2023-04-02T08:06:22;96433.25;;;8.99;100.00
36598;BME280;22607;49.550;11.940;2023-04-02T08:08:49;96441.13;;;8.99;100.00
36598;BME280;22607;49.550;11.940;2023-04-02T08:11:17;96447.19;;;8.99;100.00
36598;BME280;22607;49.550;11.940;2023-04-02T08:13:43;96449.34;;;8.96;100.00
36598;BME280;22607;49.550;11.940;2023-04-02T08:16:10;96456.34;;;9.03;100.00
36598;BME280;22607;49.550;11.940;2023-04-02T08:18:37;96466.66;;;9.05;100.00
36598;BME280;22607;49.550;11.940;2023-04-02T08:21:06;96466.25;;;9.16;100.00
36598;BME280;22607;49.550;11.940;2023-04-02T08:23:34;96468.69;;;9.18;100.00
36598;BME280;22607;49.550;11.940;2023-04-02T08:26:02;96469.84;;;9.15;100.00
36598;BME280;22607;49.550;11.940;2023-04-02T08:28:29;96482.25;;;8.90;100.00
36598;BME280;22607;49.550;11.940;2023-04-02T08:30:56;96484.31;;;9.03;100.00
36598;BME280;22607;49.550;11.940;2023-04-02T08:33:23;96485.78;;;8.65;100.00
36598;BME280;22607;49.550;11.940;2023-04-02T08:35:50;96494.28;;;8.76;100.00
36598;BME280;22607;49.550;11.940;2023-04-02T08:38:19;96497.53;;;8.78;100.00
36598;BME280;22607;49.550;11.940;2023-04-02T08:40:51;96496.19;;;8.82;100.00
36598;BME280;22607;49.550;11.940;2023-04-02T08:43:48;96495.94;;;8.60;100.00
36598;BME280;22607;49.550;11.940;2023-04-02T08:49:02;96506.72;;;8.65;100.00
36598;BME280;22607;49.550;11.940;2023-04-02T08:51:36;96518.50;;;8.61;100.00
36598;BME280;22607;49.550;11.940;2023-04-02T08:54:20;96518.78;;;8.83;100.00
36598;BME280;22607;49.550;11.940;2023-04-02T08:57:03;96525.03;;;8.74;100.00
36598;BME280;22607;49.550;11.940;2023-04-02T08:59:34;96523.31;;;8.89;100.00
36598;BME280;22607;49.550;11.940;2023-04-02T09:02:26;96529.31;;;8.66;100.00
36598;BME280;22607;49.550;11.940;2023-04-02T09:04:58;96532.88;;;8.82;100.00
36598;BME280;22607;49.550;11.940;2023-04-02T09:07:27;96533.88;;;8.73;100.00
36598;BME280;22607;49.550;11.940;2023-04-02T09:09:54;96544.69;;;8.61;100.00
36598;BME280;22607;49.550;11.940;2023-04-02T09:12:28;96540.09;;;8.63;100.00
36598;BME280;22607;49.550;11.940;2023-04-02T09:17:39;96553.19;;;8.63;100.00
36598;BME280;22607;49.550;11.940;2023-04-02T09:20:24;96555.75;;;8.80;100.00
36598;BME280;22607;49.550;11.940;2023-04-02T09:22:53;96565.59;;;8.78;100.00
36598;BME280;22607;49.550;11.940;2023-04-02T09:25:24;96569.38;;;8.75;100.00
36598;BME280;22607;49.550;11.940;2023-04-02T09:27:52;96574.97;;;8.56;100.00
36598;BME280;22607;49.550;11.940;2023-04-02T09:33:00;96575.59;;;8.66;100.00
36598;BME280;22607;49.550;11.940;2023-04-02T09:35:30;96591.63;;;8.79;100.00
36598;BME280;22607;49.550;11.940;2023-04-02T09:38:17;96594.09;;;8.73;100.00
36598;BME280;22607;49.550;11.940;2023-04-02T09:40:50;96588.06;;;8.64;100.00
36598;BME280;22607;49.550;11.940;2023-04-02T09:43:22;96589.84;;;8.72;100.00
36598;BME280;22607;49.550;11.940;2023-04-02T09:46:17;96604.56;;;8.81;100.00
36598;BME280;22607;49.550;11.940;2023-04-02T09:48:52;96608.78;;;8.90;100.00
36598;BME280;22607;49.550;11.940;2023-04-02T09:51:23;96617.66;;;8.81;100.00
36598;BME280;22607;49.550;11.940;2023-04-02T09:53:51;96616.66;;;8.90;100.00
36598;BME280;22607;49.550;11.940;2023-04-02T09:56:36;96622.34;;;9.02;100.00
36598;BME280;22607;49.550;11.940;2023-04-02T10:07:31;96634.31;;;8.80;100.00
36598;BME280;22607;49.550;11.940;2023-04-02T10:10:02;96631.56;;;8.65;100.00
36598;BME280;22607;49.550;11.940;2023-04-02T10:12:40;96644.31;;;8.51;100.00
36598;BME280;22607;49.550;11.940;2023-04-02T10:15:24;96650.72;;;8.57;100.00
36598;BME280;22607;49.550;11.940;2023-04-02T10:18:00;96654.50;;;8.55;100.00
36598;BME280;22607;49.550;11.940;2023-04-02T10:20:31;96650.72;;;8.57;100.00
36598;BME280;22607;49.550;11.940;2023-04-02T10:23:14;96658.84;;;8.46;100.00
36598;BME280;22607;49.550;11.940;2023-04-02T10:25:53;96660.50;;;8.38;100.00
36598;BME280;22607;49.550;11.940;2023-04-02T10:28:42;96671.13;;;8.28;100.00
36598;BME280;22607;49.550;11.940;2023-04-02T10:31:22;96671.13;;;8.37;100.00
36598;BME280;22607;49.550;11.940;2023-04-02T10:34:03;96680.13;;;8.34;100.00
36598;BME280;22607;49.550;11.940;2023-04-02T10:39:33;96676.31;;;8.04;100.00
36598;BME280;22607;49.550;11.940;2023-04-02T10:44:58;96695.31;;;8.22;100.00
36598;BME280;22607;49.550;11.940;2023-04-02T10:47:37;96690.88;;;8.23;100.00
36598;BME280;22607;49.550;11.940;2023-04-02T10:50:31;96704.63;;;8.25;100.00
36598;BME280;22607;49.550;11.940;2023-04-02T10:53:13;96713.13;;;8.19;100.00
36598;BME280;22607;49.550;11.940;2023-04-02T10:55:45;96701.88;;;8.26;100.00
36598;BME280;22607;49.550;11.940;2023-04-02T10:58:25;96714.59;;;8.21;100.00
36598;BME280;22607;49.550;11.940;2023-04-02T11:00:58;96718.03;;;8.22;100.00
36598;BME280;22607;49.550;11.940;2023-04-02T11:03:31;96725.38;;;8.10;100.00
36598;BME280;22607;49.550;11.940;2023-04-02T11:06:35;96728.09;;;8.00;100.00
36598;BME280;22607;49.550;11.940;2023-04-02T11:09:01;96728.44;;;7.97;100.00
36598;BME280;22607;49.550;11.940;2023-04-02T11:11:39;96742.16;;;7.99;100.00
36598;BME280;22607;49.550;11.940;2023-04-02T11:14:13;96733.50;;;7.98;100.00
36598;BME280;22607;49.550;11.940;2023-04-02T11:16:42;96751.69;;;8.08;100.00
36598;BME280;22607;49.550;11.940;2023-04-02T11:29:49;96755.78;;;8.11;100.00
36598;BME280;22607;49.550;11.940;2023-04-02T11:37:41;96775.19;;;8.00;100.00
36598;BME280;22607;49.550;11.940;2023-04-02T11:42:46;96782.72;;;8.03;100.00
36598;BME280;22607;49.550;11.940;2023-04-02T11:50:40;96788.06;;;7.93;100.00
36598;BME280;22607;49.550;11.940;2023-04-02T11:55:38;96801.66;;;7.97;100.00
36598;BME280;22607;49.550;11.940;2023-04-02T12:06:53;96810.56;;;8.12;100.00
36598;BME280;22607;49.550;11.940;2023-04-02T12:09:32;96812.38;;;8.20;100.00
36598;BME280;22607;49.550;11.940;2023-04-02T12:12:23;96816.25;;;8.51;100.00
36598;BME280;22607;49.550;11.940;2023-04-02T12:14:55;96821.09;;;8.29;100.00
36598;BME280;22607;49.550;11.940;2023-04-02T12:17:34;96811.88;;;8.17;100.00
36598;BME280;22607;49.550;11.940;2023-04-02T12:22:38;96836.78;;;8.29;100.00
36598;BME280;22607;49.550;11.940;2023-04-02T12:25:27;96834.06;;;8.47;100.00
36598;BME280;22607;49.550;11.940;2023-04-02T12:30:30;96837.75;;;8.28;100.00
36598;BME280;22607;49.550;11.940;2023-04-02T12:32:57;96843.97;;;8.27;100.00
36598;BME280;22607;49.550;11.940;2023-04-02T12:35:39;96854.03;;;8.13;100.00
36598;BME280;22607;49.550;11.940;2023-04-02T12:38:25;96853.97;;;7.97;100.00
36598;BME280;22607;49.550;11.940;2023-04-02T12:41:01;96869.47;;;7.64;100.00
36598;BME280;22607;49.550;11.940;2023-04-02T12:43:33;96879.56;;;7.85;100.00
36598;BME280;22607;49.550;11.940;2023-04-02T12:46:03;96876.00;;;7.68;100.00
36598;BME280;22607;49.550;11.940;2023-04-02T12:48:31;96875.91;;;7.78;100.00
36598;BME280;22607;49.550;11.940;2023-04-02T12:50:59;96872.00;;;7.82;100.00
36598;BME280;22607;49.550;11.940;2023-04-02T12:53:33;96879.09;;;7.90;100.00
36598;BME280;22607;49.550;11.940;2023-04-02T12:56:00;96878.25;;;7.62;100.00
36598;BME280;22607;49.550;11.940;2023-04-02T12:58:28;96884.47;;;7.61;100.00
36598;BME280;22607;49.550;11.940;2023-04-02T13:01:14;96892.56;;;7.77;100.00
36598;BME280;22607;49.550;11.940;2023-04-02T13:03:41;96895.97;;;7.69;100.00
36598;BME280;22607;49.550;11.940;2023-04-02T13:06:20;96909.94;;;7.59;100.00
36598;BME280;22607;49.550;11.940;2023-04-02T13:08:49;96904.03;;;7.57;100.00
36598;BME280;22607;49.550;11.940;2023-04-02T13:11:16;96908.06;;;7.33;100.00
36598;BME280;22607;49.550;11.940;2023-04-02T13:13:44;96915.16;;;7.59;100.00
36598;BME280;22607;49.550;11.940;2023-04-02T13:18:38;96908.75;;;7.54;100.00
36598;BME280;22607;49.550;11.940;2023-04-02T13:21:25;96917.78;;;7.23;100.00
36598;BME280;22607;49.550;11.940;2023-04-02T13:23:55;96913.91;;;7.45;100.00
36598;BME280;22607;49.550;11.940;2023-04-02T13:26:23;96916.78;;;7.42;100.00
36598;BME280;22607;49.550;11.940;2023-04-02T13:31:21;96923.59;;;7.35;100.00
36598;BME280;22607;49.550;11.940;2023-04-02T13:33:48;96925.34;;;7.26;100.00
36598;BME280;22607;49.550;11.940;2023-04-02T13:36:14;96927.06;;;7.35;100.00
36598;BME280;22607;49.550;11.940;2023-04-02T13:38:43;96929.66;;;7.35;100.00
36598;BME280;22607;49.550;11.940;2023-04-02T13:41:18;96923.16;;;7.40;100.00
36598;BME280;22607;49.550;11.940;2023-04-02T13:43:47;96927.72;;;7.38;100.00
36598;BME280;22607;49.550;11.940;2023-04-02T13:46:18;96925.84;;;7.48;100.00
36598;BME280;22607;49.550;11.940;2023-04-02T13:48:48;96930.91;;;7.49;100.00
36598;BME280;22607;49.550;11.940;2023-04-02T13:51:16;96927.88;;;7.54;100.00
36598;BME280;22607;49.550;11.940;2023-04-02T13:53:51;96937.72;;;7.60;100.00
36598;BME280;22607;49.550;11.940;2023-04-02T13:56:19;96928.88;;;7.61;100.00
36598;BME280;22607;49.550;11.940;2023-04-02T13:58:48;96945.31;;;7.72;100.00
36598;BME280;22607;49.550;11.940;2023-04-02T14:01:14;96949.50;;;7.65;100.00
36598;BME280;22607;49.550;11.940;2023-04-02T14:03:41;96946.38;;;7.43;100.00
36598;BME280;22607;49.550;11.940;2023-04-02T14:06:42;96957.03;;;7.68;100.00
36598;BME280;22607;49.550;11.940;2023-04-02T14:12:05;96948.28;;;7.77;100.00
36598;BME280;22607;49.550;11.940;2023-04-02T14:17:40;96958.94;;;8.02;100.00
36598;BME280;22607;49.550;11.940;2023-04-02T14:23:20;96955.19;;;8.05;100.00
36598;BME280;22607;49.550;11.940;2023-04-02T14:28:47;96973.97;;;8.00;100.00
36598;BME280;22607;49.550;11.940;2023-04-02T14:34:49;96979.72;;;8.04;99.89
36598;BME280;22607;49.550;11.940;2023-04-02T14:43:25;96987.41;;;8.05;94.76
36598;BME280;22607;49.550;11.940;2023-04-02T14:46:04;96986.44;;;7.88;93.04
36598;BME280;22607;49.550;11.940;2023-04-02T14:48:41;96997.97;;;7.95;94.94
36598;BME280;22607;49.550;11.940;2023-04-02T14:54:03;96996.09;;;7.87;90.89
36598;BME280;22607;49.550;11.940;2023-04-02T14:56:34;96999.41;;;7.71;94.04
36598;BME280;22607;49.550;11.940;2023-04-02T15:01:56;97009.09;;;7.79;96.29
36598;BME280;22607;49.550;11.940;2023-04-02T15:04:31;97008.06;;;7.72;97.85
36598;BME280;22607;49.550;11.940;2023-04-02T15:07:03;97015.38;;;7.86;94.10
36598;BME280;22607;49.550;11.940;2023-04-02T15:09:37;97023.59;;;7.92;94.44
36598;BME280;22607;49.550;11.940;2023-04-02T15:12:12;97017.69;;;8.08;87.76
36598;BME280;22607;49.550;11.940;2023-04-02T15:14:47;97017.69;;;7.90;86.48
36598;BME280;22607;49.550;11.940;2023-04-02T15:17:19;97015.06;;;7.53;84.94
36598;BME280;22607;49.550;11.940;2023-04-02T15:19:46;97017.72;;;7.71;88.99
36598;BME280;22607;49.550;11.940;2023-04-02T15:27:33;97042.47;;;7.49;86.63
36598;BME280;22607;49.550;11.940;2023-04-02T15:30:24;97038.72;;;7.52;90.29
36598;BME280;22607;49.550;11.940;2023-04-02T15:32:55;97042.41;;;7.59;88.12
36598;BME280;22607;49.550;11.940;2023-04-02T15:35:41;97048.53;;;7.68;89.21
36598;BME280;22607;49.550;11.940;2023-04-02T15:41:00;97050.91;;;7.61;82.87
36598;BME280;22607;49.550;11.940;2023-04-02T15:43:40;97052.50;;;7.72;88.60
36598;BME280;22607;49.550;11.940;2023-04-02T15:46:30;97051.69;;;7.90;83.87
36598;BME280;22607;49.550;11.940;2023-04-02T15:52:45;97060.19;;;8.10;79.00
36598;BME280;22607;49.550;11.940;2023-04-02T15:54:58;97074.94;;;7.93;79.29
36598;BME280;22607;49.550;11.940;2023-04-02T15:57:37;97088.28;;;7.90;81.42
36598;BME280;22607;49.550;11.940;2023-04-02T16:08:44;97100.91;;;7.76;77.42